sensor_id;sensor_type;location;lat;lon;timestamp;P1;P2;P0
48893;PMS5003;34710;35.798;139.446;2022-08-19T00:02:07;3;3;
48893;PMS5003;34710;35.798;139.446;2022-08-19T00:04:36;2;2;
48893;PMS5003;34710;35.798;139.446;2022-08-19T00:07:06;2;2;
48893;PMS5003;34710;35.798;139.446;2022-08-19T00:09:35;6;5;
48893;PMS5003;34710;35.798;139.446;2022-08-19T00:12:05;7;3;
48893;PMS5003;34710;35.798;139.446;2022-08-19T00:14:34;4;4;
48893;PMS5003;34710;35.798;139.446;2022-08-19T00:17:04;2;2;
48893;PMS5003;34710;35.798;139.446;2022-08-19T00:19:35;2;2;
48893;PMS5003;34710;35.798;139.446;2022-08-19T00:22:05;2;2;
48893;PMS5003;34710;35.798;139.446;2022-08-19T00:24:35;2;2;
48893;PMS5003;34710;35.798;139.446;2022-08-19T00:27:04;3;3;
48893;PMS5003;34710;35.798;139.446;2022-08-19T00:29:34;3;3;
48893;PMS5003;34710;35.798;139.446;2022-08-19T00:32:03;5;3;
48893;PMS5003;34710;35.798;139.446;2022-08-19T00:34:32;3;3;
48893;PMS5003;34710;35.798;139.446;2022-08-19T00:37:02;2;2;
48893;PMS5003;34710;35.798;139.446;2022-08-19T00:39:31;4;2;
48893;PMS5003;34710;35.798;139.446;2022-08-19T00:42:00;3;3;
48893;PMS5003;34710;35.798;139.446;2022-08-19T00:44:30;4;3;
48893;PMS5003;34710;35.798;139.446;2022-08-19T00:46:59;3;2;
48893;PMS5003;34710;35.798;139.446;2022-08-19T00:49:30;2;2;
48893;PMS5003;34710;35.798;139.446;2022-08-19T00:52:03;3;3;
48893;PMS5003;34710;35.798;139.446;2022-08-19T00:54:36;2;2;
48893;PMS5003;34710;35.798;139.446;2022-08-19T00:57:07;2;2;
48893;PMS5003;34710;35.798;139.446;2022-08-19T00:59:40;2;2;
48893;PMS5003;34710;35.798;139.446;2022-08-19T01:02:12;2;2;
48893;PMS5003;34710;35.798;139.446;2022-08-19T01:04:42;3;3;
48893;PMS5003;34710;35.798;139.446;2022-08-19T01:07:12;3;2;
48893;PMS5003;34710;35.798;139.446;2022-08-19T01:09:41;2;2;
48893;PMS5003;34710;35.798;139.446;2022-08-19T01:12:10;2;2;
48893;PMS5003;34710;35.798;139.446;2022-08-19T01:14:40;2;2;
48893;PMS5003;34710;35.798;139.446;2022-08-19T01:17:10;2;2;
48893;PMS5003;34710;35.798;139.446;2022-08-19T01:19:41;2;1;
48893;PMS5003;34710;35.798;139.446;2022-08-19T01:22:14;3;3;
48893;PMS5003;34710;35.798;139.446;2022-08-19T01:24:48;2;2;
48893;PMS5003;34710;35.798;139.446;2022-08-19T01:27:19;2;2;
48893;PMS5003;34710;35.798;139.446;2022-08-19T01:29:48;2;2;
48893;PMS5003;34710;35.798;139.446;2022-08-19T01:32:17;2;2;
48893;PMS5003;34710;35.798;139.446;2022-08-19T01:34:47;2;2;
48893;PMS5003;34710;35.798;139.446;2022-08-19T01:37:16;2;2;
48893;PMS5003;34710;35.798;139.446;2022-08-19T01:39:45;4;4;
48893;PMS5003;34710;35.798;139.446;2022-08-19T01:42:15;2;2;
48893;PMS5003;34710;35.798;139.446;2022-08-19T01:44:44;3;2;
48893;PMS5003;34710;35.798;139.446;2022-08-19T01:47:14;3;3;
48893;PMS5003;34710;35.798;139.446;2022-08-19T01:49:43;1;1;
48893;PMS5003;34710;35.798;139.446;2022-08-19T01:52:12;13;2;
48893;PMS5003;34710;35.798;139.446;2022-08-19T01:54:42;4;3;
48893;PMS5003;34710;35.798;139.446;2022-08-19T01:57:12;7;3;
48893;PMS5003;34710;35.798;139.446;2022-08-19T01:59:43;3;2;
48893;PMS5003;34710;35.798;139.446;2022-08-19T02:02:12;3;3;
48893;PMS5003;34710;35.798;139.446;2022-08-19T02:04:41;2;2;
48893;PMS5003;34710;35.798;139.446;2022-08-19T02:07:11;4;3;
48893;PMS5003;34710;35.798;139.446;2022-08-19T02:09:40;4;2;
48893;PMS5003;34710;35.798;139.446;2022-08-19T02:12:10;7;3;
48893;PMS5003;34710;35.798;139.446;2022-08-19T02:14:39;3;3;
48893;PMS5003;34710;35.798;139.446;2022-08-19T02:17:09;3;3;
48893;PMS5003;34710;35.798;139.446;2022-08-19T02:19:39;3;2;
48893;PMS5003;34710;35.798;139.446;2022-08-19T02:22:08;3;3;
48893;PMS5003;34710;35.798;139.446;2022-08-19T02:24:37;5;4;
48893;PMS5003;34710;35.798;139.446;2022-08-19T02:27:07;4;3;
48893;PMS5003;34710;35.798;139.446;2022-08-19T02:29:36;4;4;
48893;PMS5003;34710;35.798;139.446;2022-08-19T02:32:06;5;5;
48893;PMS5003;34710;35.798;139.446;2022-08-19T02:34:35;4;4;
48893;PMS5003;34710;35.798;139.446;2022-08-19T02:37:04;4;4;
48893;PMS5003;34710;35.798;139.446;2022-08-19T02:39:34;4;4;
48893;PMS5003;34710;35.798;139.446;2022-08-19T02:42:03;5;3;
48893;PMS5003;34710;35.798;139.446;2022-08-19T02:44:32;5;5;
48893;PMS5003;34710;35.798;139.446;2022-08-19T02:47:02;6;6;
48893;PMS5003;34710;35.798;139.446;2022-08-19T02:49:31;5;3;
48893;PMS5003;34710;35.798;139.446;2022-08-19T02:52:00;6;5;
48893;PMS5003;34710;35.798;139.446;2022-08-19T02:54:30;9;9;
48893;PMS5003;34710;35.798;139.446;2022-08-19T02:56:59;9;9;
48893;PMS5003;34710;35.798;139.446;2022-08-19T02:59:29;9;9;
48893;PMS5003;34710;35.798;139.446;2022-08-19T03:01:59;11;10;
48893;PMS5003;34710;35.798;139.446;2022-08-19T03:04:29;10;10;
48893;PMS5003;34710;35.798;139.446;2022-08-19T03:06:59;10;10;
48893;PMS5003;34710;35.798;139.446;2022-08-19T03:09:28;11;10;
48893;PMS5003;34710;35.798;139.446;2022-08-19T03:11:58;11;9;
48893;PMS5003;34710;35.798;139.446;2022-08-19T03:14:29;10;10;
48893;PMS5003;34710;35.798;139.446;2022-08-19T03:16:59;12;10;
48893;PMS5003;34710;35.798;139.446;2022-08-19T03:19:29;9;9;
48893;PMS5003;34710;35.798;139.446;2022-08-19T03:21:58;13;12;
48893;PMS5003;34710;35.798;139.446;2022-08-19T03:24:27;10;10;
48893;PMS5003;34710;35.798;139.446;2022-08-19T03:26:57;9;9;
48893;PMS5003;34710;35.798;139.446;2022-08-19T03:29:27;9;9;
48893;PMS5003;34710;35.798;139.446;2022-08-19T03:31:56;8;8;
48893;PMS5003;34710;35.798;139.446;2022-08-19T03:34:28;14;10;
48893;PMS5003;34710;35.798;139.446;2022-08-19T03:36:59;8;8;
48893;PMS5003;34710;35.798;139.446;2022-08-19T03:39:32;10;9;
48893;PMS5003;34710;35.798;139.446;2022-08-19T03:42:03;12;11;
48893;PMS5003;34710;35.798;139.446;2022-08-19T03:44:32;9;9;
48893;PMS5003;34710;35.798;139.446;2022-08-19T03:47:02;11;10;
48893;PMS5003;34710;35.798;139.446;2022-08-19T03:49:32;10;9;
48893;PMS5003;34710;35.798;139.446;2022-08-19T03:52:02;8;8;
48893;PMS5003;34710;35.798;139.446;2022-08-19T03:54:32;6;6;
48893;PMS5003;34710;35.798;139.446;2022-08-19T03:57:02;8;8;
48893;PMS5003;34710;35.798;139.446;2022-08-19T03:59:33;9;9;
48893;PMS5003;34710;35.798;139.446;2022-08-19T04:02:08;9;8;
48893;PMS5003;34710;35.798;139.446;2022-08-19T04:04:39;7;7;
48893;PMS5003;34710;35.798;139.446;2022-08-19T04:07:11;10;8;
48893;PMS5003;34710;35.798;139.446;2022-08-19T04:09:41;7;7;
48893;PMS5003;34710;35.798;139.446;2022-08-19T04:12:11;10;8;
48893;PMS5003;34710;35.798;139.446;2022-08-19T04:14:40;9;8;
48893;PMS5003;34710;35.798;139.446;2022-08-19T04:17:10;7;7;
48893;PMS5003;34710;35.798;139.446;2022-08-19T04:19:39;6;6;
48893;PMS5003;34710;35.798;139.446;2022-08-19T04:22:09;7;7;
48893;PMS5003;34710;35.798;139.446;2022-08-19T04:24:38;8;7;
48893;PMS5003;34710;35.798;139.446;2022-08-19T04:27:08;8;7;
48893;PMS5003;34710;35.798;139.446;2022-08-19T04:29:37;9;8;
48893;PMS5003;34710;35.798;139.446;2022-08-19T04:32:07;6;6;
48893;PMS5003;34710;35.798;139.446;2022-08-19T04:34:37;6;6;
48893;PMS5003;34710;35.798;139.446;2022-08-19T04:37:06;8;8;
48893;PMS5003;34710;35.798;139.446;2022-08-19T04:39:36;7;7;
48893;PMS5003;34710;35.798;139.446;2022-08-19T04:42:06;7;7;
48893;PMS5003;34710;35.798;139.446;2022-08-19T04:44:36;7;7;
48893;PMS5003;34710;35.798;139.446;2022-08-19T04:47:05;6;6;
48893;PMS5003;34710;35.798;139.446;2022-08-19T04:49:35;7;6;
48893;PMS5003;34710;35.798;139.446;2022-08-19T04:52:04;8;6;
48893;PMS5003;34710;35.798;139.446;2022-08-19T04:54:33;9;7;
48893;PMS5003;34710;35.798;139.446;2022-08-19T04:57:03;11;8;
48893;PMS5003;34710;35.798;139.446;2022-08-19T04:59:34;11;7;
48893;PMS5003;34710;35.798;139.446;2022-08-19T05:02:03;8;7;
48893;PMS5003;34710;35.798;139.446;2022-08-19T05:04:34;7;6;
48893;PMS5003;34710;35.798;139.446;2022-08-19T05:07:04;7;7;
48893;PMS5003;34710;35.798;139.446;2022-08-19T05:09:33;7;7;
48893;PMS5003;34710;35.798;139.446;2022-08-19T05:12:03;6;4;
48893;PMS5003;34710;35.798;139.446;2022-08-19T05:14:33;6;6;
48893;PMS5003;34710;35.798;139.446;2022-08-19T05:17:02;10;6;
48893;PMS5003;34710;35.798;139.446;2022-08-19T05:19:31;8;7;
48893;PMS5003;34710;35.798;139.446;2022-08-19T05:22:01;6;6;
48893;PMS5003;34710;35.798;139.446;2022-08-19T05:24:30;6;6;
48893;PMS5003;34710;35.798;139.446;2022-08-19T05:27:01;5;5;
48893;PMS5003;34710;35.798;139.446;2022-08-19T05:29:32;5;5;
48893;PMS5003;34710;35.798;139.446;2022-08-19T05:32:02;4;4;
48893;PMS5003;34710;35.798;139.446;2022-08-19T05:34:32;7;6;
48893;PMS5003;34710;35.798;139.446;2022-08-19T05:37:02;7;7;
48893;PMS5003;34710;35.798;139.446;2022-08-19T05:39:33;5;5;
48893;PMS5003;34710;35.798;139.446;2022-08-19T05:42:05;6;6;
48893;PMS5003;34710;35.798;139.446;2022-08-19T05:44:38;7;6;
48893;PMS5003;34710;35.798;139.446;2022-08-19T05:47:09;6;6;
48893;PMS5003;34710;35.798;139.446;2022-08-19T05:49:40;6;6;
48893;PMS5003;34710;35.798;139.446;2022-08-19T05:52:11;6;6;
48893;PMS5003;34710;35.798;139.446;2022-08-19T05:54:42;5;5;
48893;PMS5003;34710;35.798;139.446;2022-08-19T05:57:13;9;6;
48893;PMS5003;34710;35.798;139.446;2022-08-19T05:59:42;9;5;
48893;PMS5003;34710;35.798;139.446;2022-08-19T06:02:11;7;6;
48893;PMS5003;34710;35.798;139.446;2022-08-19T06:04:41;6;6;
48893;PMS5003;34710;35.798;139.446;2022-08-19T06:07:10;5;4;
48893;PMS5003;34710;35.798;139.446;2022-08-19T06:09:40;5;5;
48893;PMS5003;34710;35.798;139.446;2022-08-19T06:12:09;6;6;
48893;PMS5003;34710;35.798;139.446;2022-08-19T06:14:38;7;7;
48893;PMS5003;34710;35.798;139.446;2022-08-19T06:17:08;5;5;
48893;PMS5003;34710;35.798;139.446;2022-08-19T06:19:37;6;5;
48893;PMS5003;34710;35.798;139.446;2022-08-19T06:22:07;4;4;
48893;PMS5003;34710;35.798;139.446;2022-08-19T06:24:36;6;5;
48893;PMS5003;34710;35.798;139.446;2022-08-19T06:27:05;3;3;
48893;PMS5003;34710;35.798;139.446;2022-08-19T06:29:35;5;5;
48893;PMS5003;34710;35.798;139.446;2022-08-19T06:32:05;5;4;
48893;PMS5003;34710;35.798;139.446;2022-08-19T06:34:35;6;6;
48893;PMS5003;34710;35.798;139.446;2022-08-19T06:37:04;6;4;
48893;PMS5003;34710;35.798;139.446;2022-08-19T06:39:35;5;4;
48893;PMS5003;34710;35.798;139.446;2022-08-19T06:42:06;6;6;
48893;PMS5003;34710;35.798;139.446;2022-08-19T06:44:38;6;5;
48893;PMS5003;34710;35.798;139.446;2022-08-19T06:47:09;4;4;
48893;PMS5003;34710;35.798;139.446;2022-08-19T06:49:41;4;4;
48893;PMS5003;34710;35.798;139.446;2022-08-19T06:52:11;5;5;
48893;PMS5003;34710;35.798;139.446;2022-08-19T06:54:41;5;4;
48893;PMS5003;34710;35.798;139.446;2022-08-19T06:57:10;5;5;
48893;PMS5003;34710;35.798;139.446;2022-08-19T06:59:40;6;5;
48893;PMS5003;34710;35.798;139.446;2022-08-19T07:02:09;7;5;
48893;PMS5003;34710;35.798;139.446;2022-08-19T07:04:38;6;5;
48893;PMS5003;34710;35.798;139.446;2022-08-19T07:07:09;5;5;
48893;PMS5003;34710;35.798;139.446;2022-08-19T07:09:40;5;5;
48893;PMS5003;34710;35.798;139.446;2022-08-19T07:12:11;7;6;
48893;PMS5003;34710;35.798;139.446;2022-08-19T07:14:42;5;5;
48893;PMS5003;34710;35.798;139.446;2022-08-19T07:17:12;5;5;
48893;PMS5003;34710;35.798;139.446;2022-08-19T07:19:41;4;4;
48893;PMS5003;34710;35.798;139.446;2022-08-19T07:22:11;6;6;
48893;PMS5003;34710;35.798;139.446;2022-08-19T07:24:40;5;5;
48893;PMS5003;34710;35.798;139.446;2022-08-19T07:27:10;4;4;
48893;PMS5003;34710;35.798;139.446;2022-08-19T07:29:41;6;5;
48893;PMS5003;34710;35.798;139.446;2022-08-19T07:32:10;4;4;
48893;PMS5003;34710;35.798;139.446;2022-08-19T07:34:40;5;5;
48893;PMS5003;34710;35.798;139.446;2022-08-19T07:37:09;4;4;
48893;PMS5003;34710;35.798;139.446;2022-08-19T07:39:38;3;3;
48893;PMS5003;34710;35.798;139.446;2022-08-19T07:42:09;5;5;
48893;PMS5003;34710;35.798;139.446;2022-08-19T07:44:39;6;5;
48893;PMS5003;34710;35.798;139.446;2022-08-19T07:47:09;6;4;
48893;PMS5003;34710;35.798;139.446;2022-08-19T07:49:39;6;5;
48893;PMS5003;34710;35.798;139.446;2022-08-19T07:52:09;7;6;
48893;PMS5003;34710;35.798;139.446;2022-08-19T07:54:39;7;7;
48893;PMS5003;34710;35.798;139.446;2022-08-19T07:57:09;6;6;
48893;PMS5003;34710;35.798;139.446;2022-08-19T07:59:38;7;5;
48893;PMS5003;34710;35.798;139.446;2022-08-19T08:02:08;10;9;
48893;PMS5003;34710;35.798;139.446;2022-08-19T08:04:38;8;7;
48893;PMS5003;34710;35.798;139.446;2022-08-19T08:07:07;5;5;
48893;PMS5003;34710;35.798;139.446;2022-08-19T08:09:38;6;6;
48893;PMS5003;34710;35.798;139.446;2022-08-19T08:12:09;10;8;
48893;PMS5003;34710;35.798;139.446;2022-08-19T08:14:41;5;5;
48893;PMS5003;34710;35.798;139.446;2022-08-19T08:17:13;6;6;
48893;PMS5003;34710;35.798;139.446;2022-08-19T08:19:44;7;7;
48893;PMS5003;34710;35.798;139.446;2022-08-19T08:22:15;11;10;
48893;PMS5003;34710;35.798;139.446;2022-08-19T08:24:46;12;11;
48893;PMS5003;34710;35.798;139.446;2022-08-19T08:27:15;10;10;
48893;PMS5003;34710;35.798;139.446;2022-08-19T08:29:45;12;9;
48893;PMS5003;34710;35.798;139.446;2022-08-19T08:32:15;12;9;
48893;PMS5003;34710;35.798;139.446;2022-08-19T08:34:44;10;10;
48893;PMS5003;34710;35.798;139.446;2022-08-19T08:37:14;9;9;
48893;PMS5003;34710;35.798;139.446;2022-08-19T08:39:43;12;11;
48893;PMS5003;34710;35.798;139.446;2022-08-19T08:42:14;14;11;
48893;PMS5003;34710;35.798;139.446;2022-08-19T08:44:52;14;11;
48893;PMS5003;34710;35.798;139.446;2022-08-19T08:47:25;14;11;
48893;PMS5003;34710;35.798;139.446;2022-08-19T08:50:02;16;12;
48893;PMS5003;34710;35.798;139.446;2022-08-19T08:52:37;13;11;
48893;PMS5003;34710;35.798;139.446;2022-08-19T08:55:12;14;11;
48893;PMS5003;34710;35.798;139.446;2022-08-19T08:57:49;13;11;
48893;PMS5003;34710;35.798;139.446;2022-08-19T09:00:26;11;9;
48893;PMS5003;34710;35.798;139.446;2022-08-19T09:02:58;11;9;
48893;PMS5003;34710;35.798;139.446;2022-08-19T09:05:32;10;8;
48893;PMS5003;34710;35.798;139.446;2022-08-19T09:08:13;9;9;
48893;PMS5003;34710;35.798;139.446;2022-08-19T09:10:52;8;8;
48893;PMS5003;34710;35.798;139.446;2022-08-19T09:13:24;15;6;
48893;PMS5003;34710;35.798;139.446;2022-08-19T09:16:03;10;6;
48893;PMS5003;34710;35.798;139.446;2022-08-19T09:18:39;9;6;
48893;PMS5003;34710;35.798;139.446;2022-08-19T09:18:43;9;6;
48893;PMS5003;34710;35.798;139.446;2022-08-19T09:21:15;9;8;
48893;PMS5003;34710;35.798;139.446;2022-08-19T09:23:45;12;10;
48893;PMS5003;34710;35.798;139.446;2022-08-19T09:26:15;11;8;
48893;PMS5003;34710;35.798;139.446;2022-08-19T09:28:46;8;7;
48893;PMS5003;34710;35.798;139.446;2022-08-19T09:31:17;9;8;
48893;PMS5003;34710;35.798;139.446;2022-08-19T09:33:49;11;9;
48893;PMS5003;34710;35.798;139.446;2022-08-19T09:36:19;10;9;
48893;PMS5003;34710;35.798;139.446;2022-08-19T09:38:50;10;8;
48893;PMS5003;34710;35.798;139.446;2022-08-19T09:41:20;11;8;
48893;PMS5003;34710;35.798;139.446;2022-08-19T09:43:51;10;10;
48893;PMS5003;34710;35.798;139.446;2022-08-19T09:46:23;16;7;
48893;PMS5003;34710;35.798;139.446;2022-08-19T09:48:53;6;6;
48893;PMS5003;34710;35.798;139.446;2022-08-19T09:51:27;11;8;
48893;PMS5003;34710;35.798;139.446;2022-08-19T09:53:59;9;8;
48893;PMS5003;34710;35.798;139.446;2022-08-19T09:56:30;6;6;
48893;PMS5003;34710;35.798;139.446;2022-08-19T09:59:00;20;8;
48893;PMS5003;34710;35.798;139.446;2022-08-19T10:01:31;7;7;
48893;PMS5003;34710;35.798;139.446;2022-08-19T10:04:00;9;9;
48893;PMS5003;34710;35.798;139.446;2022-08-19T10:06:30;11;9;
48893;PMS5003;34710;35.798;139.446;2022-08-19T10:08:59;10;8;
48893;PMS5003;34710;35.798;139.446;2022-08-19T10:11:28;13;10;
48893;PMS5003;34710;35.798;139.446;2022-08-19T10:13:58;8;8;
48893;PMS5003;34710;35.798;139.446;2022-08-19T10:16:27;7;7;
48893;PMS5003;34710;35.798;139.446;2022-08-19T10:18:57;9;8;
48893;PMS5003;34710;35.798;139.446;2022-08-19T10:21:27;10;9;
48893;PMS5003;34710;35.798;139.446;2022-08-19T10:24:00;10;9;
48893;PMS5003;34710;35.798;139.446;2022-08-19T10:26:33;9;8;
48893;PMS5003;34710;35.798;139.446;2022-08-19T10:29:05;13;9;
48893;PMS5003;34710;35.798;139.446;2022-08-19T10:31:35;6;6;
48893;PMS5003;34710;35.798;139.446;2022-08-19T10:34:05;7;7;
48893;PMS5003;34710;35.798;139.446;2022-08-19T10:36:35;10;7;
48893;PMS5003;34710;35.798;139.446;2022-08-19T10:39:06;8;8;
48893;PMS5003;34710;35.798;139.446;2022-08-19T10:41:37;8;7;
48893;PMS5003;34710;35.798;139.446;2022-08-19T10:44:07;7;7;
48893;PMS5003;34710;35.798;139.446;2022-08-19T10:46:39;10;10;
48893;PMS5003;34710;35.798;139.446;2022-08-19T10:49:10;9;7;
48893;PMS5003;34710;35.798;139.446;2022-08-19T10:51:40;10;9;
48893;PMS5003;34710;35.798;139.446;2022-08-19T10:54:09;11;8;
48893;PMS5003;34710;35.798;139.446;2022-08-19T10:56:39;11;9;
48893;PMS5003;34710;35.798;139.446;2022-08-19T10:59:09;10;7;
48893;PMS5003;34710;35.798;139.446;2022-08-19T11:01:38;10;8;
48893;PMS5003;34710;35.798;139.446;2022-08-19T11:04:08;8;8;
48893;PMS5003;34710;35.798;139.446;2022-08-19T11:06:38;9;8;
48893;PMS5003;34710;35.798;139.446;2022-08-19T11:09:07;9;9;
48893;PMS5003;34710;35.798;139.446;2022-08-19T11:11:37;10;10;
48893;PMS5003;34710;35.798;139.446;2022-08-19T11:14:07;9;7;
48893;PMS5003;34710;35.798;139.446;2022-08-19T11:16:38;8;7;
48893;PMS5003;34710;35.798;139.446;2022-08-19T11:19:10;11;8;
48893;PMS5003;34710;35.798;139.446;2022-08-19T11:21:41;12;9;
48893;PMS5003;34710;35.798;139.446;2022-08-19T11:24:14;9;7;
48893;PMS5003;34710;35.798;139.446;2022-08-19T11:26:46;12;10;
48893;PMS5003;34710;35.798;139.446;2022-08-19T11:29:17;10;9;
48893;PMS5003;34710;35.798;139.446;2022-08-19T11:31:49;19;9;
48893;PMS5003;34710;35.798;139.446;2022-08-19T11:34:19;11;9;
48893;PMS5003;34710;35.798;139.446;2022-08-19T11:36:51;15;8;
48893;PMS5003;34710;35.798;139.446;2022-08-19T11:39:23;11;9;
48893;PMS5003;34710;35.798;139.446;2022-08-19T11:41:54;11;9;
48893;PMS5003;34710;35.798;139.446;2022-08-19T11:44:25;13;9;
48893;PMS5003;34710;35.798;139.446;2022-08-19T11:46:54;15;10;
48893;PMS5003;34710;35.798;139.446;2022-08-19T11:49:24;11;9;
48893;PMS5003;34710;35.798;139.446;2022-08-19T11:51:54;10;8;
48893;PMS5003;34710;35.798;139.446;2022-08-19T11:54:23;8;8;
48893;PMS5003;34710;35.798;139.446;2022-08-19T11:56:52;19;10;
48893;PMS5003;34710;35.798;139.446;2022-08-19T11:59:21;11;9;
48893;PMS5003;34710;35.798;139.446;2022-08-19T12:01:50;8;8;
48893;PMS5003;34710;35.798;139.446;2022-08-19T12:04:20;8;8;
48893;PMS5003;34710;35.798;139.446;2022-08-19T12:06:51;11;10;
48893;PMS5003;34710;35.798;139.446;2022-08-19T12:09:20;12;10;
48893;PMS5003;34710;35.798;139.446;2022-08-19T12:11:49;12;8;
48893;PMS5003;34710;35.798;139.446;2022-08-19T12:14:19;8;8;
48893;PMS5003;34710;35.798;139.446;2022-08-19T12:16:48;12;12;
48893;PMS5003;34710;35.798;139.446;2022-08-19T12:19:17;14;10;
48893;PMS5003;34710;35.798;139.446;2022-08-19T12:21:47;10;8;
48893;PMS5003;34710;35.798;139.446;2022-08-19T12:24:17;10;9;
48893;PMS5003;34710;35.798;139.446;2022-08-19T12:26:47;11;9;
48893;PMS5003;34710;35.798;139.446;2022-08-19T12:29:17;8;8;
48893;PMS5003;34710;35.798;139.446;2022-08-19T12:31:46;9;9;
48893;PMS5003;34710;35.798;139.446;2022-08-19T12:34:15;7;7;
48893;PMS5003;34710;35.798;139.446;2022-08-19T12:36:44;8;8;
48893;PMS5003;34710;35.798;139.446;2022-08-19T12:39:14;12;7;
48893;PMS5003;34710;35.798;139.446;2022-08-19T12:41:43;12;9;
48893;PMS5003;34710;35.798;139.446;2022-08-19T12:44:12;10;8;
48893;PMS5003;34710;35.798;139.446;2022-08-19T12:46:42;11;9;
48893;PMS5003;34710;35.798;139.446;2022-08-19T12:49:11;7;7;
48893;PMS5003;34710;35.798;139.446;2022-08-19T12:51:41;9;9;
48893;PMS5003;34710;35.798;139.446;2022-08-19T12:54:10;10;10;
48893;PMS5003;34710;35.798;139.446;2022-08-19T12:56:39;13;10;
48893;PMS5003;34710;35.798;139.446;2022-08-19T12:59:09;11;9;
48893;PMS5003;34710;35.798;139.446;2022-08-19T13:01:38;11;9;
48893;PMS5003;34710;35.798;139.446;2022-08-19T13:04:08;10;8;
48893;PMS5003;34710;35.798;139.446;2022-08-19T13:06:37;14;12;
48893;PMS5003;34710;35.798;139.446;2022-08-19T13:09:07;9;8;
48893;PMS5003;34710;35.798;139.446;2022-08-19T13:11:37;12;9;
48893;PMS5003;34710;35.798;139.446;2022-08-19T13:14:06;17;9;
48893;PMS5003;34710;35.798;139.446;2022-08-19T13:16:36;10;9;
48893;PMS5003;34710;35.798;139.446;2022-08-19T13:19:05;11;10;
48893;PMS5003;34710;35.798;139.446;2022-08-19T13:21:34;10;8;
48893;PMS5003;34710;35.798;139.446;2022-08-19T13:24:04;13;11;
48893;PMS5003;34710;35.798;139.446;2022-08-19T13:26:34;12;10;
48893;PMS5003;34710;35.798;139.446;2022-08-19T13:29:03;11;9;
48893;PMS5003;34710;35.798;139.446;2022-08-19T13:31:33;9;8;
48893;PMS5003;34710;35.798;139.446;2022-08-19T13:34:08;9;9;
48893;PMS5003;34710;35.798;139.446;2022-08-19T13:36:38;10;9;
48893;PMS5003;34710;35.798;139.446;2022-08-19T13:39:07;12;9;
48893;PMS5003;34710;35.798;139.446;2022-08-19T13:41:37;14;11;
48893;PMS5003;34710;35.798;139.446;2022-08-19T13:44:10;13;12;
48893;PMS5003;34710;35.798;139.446;2022-08-19T13:46:40;14;13;
48893;PMS5003;34710;35.798;139.446;2022-08-19T13:49:09;10;9;
48893;PMS5003;34710;35.798;139.446;2022-08-19T13:51:39;11;10;
48893;PMS5003;34710;35.798;139.446;2022-08-19T13:54:09;10;9;
48893;PMS5003;34710;35.798;139.446;2022-08-19T13:56:40;11;10;
48893;PMS5003;34710;35.798;139.446;2022-08-19T13:59:11;11;10;
48893;PMS5003;34710;35.798;139.446;2022-08-19T14:01:40;14;11;
48893;PMS5003;34710;35.798;139.446;2022-08-19T14:04:10;20;11;
48893;PMS5003;34710;35.798;139.446;2022-08-19T14:06:39;17;10;
48893;PMS5003;34710;35.798;139.446;2022-08-19T14:09:09;14;10;
48893;PMS5003;34710;35.798;139.446;2022-08-19T14:11:38;12;11;
48893;PMS5003;34710;35.798;139.446;2022-08-19T14:14:07;10;10;
48893;PMS5003;34710;35.798;139.446;2022-08-19T14:16:37;13;13;
48893;PMS5003;34710;35.798;139.446;2022-08-19T14:19:06;13;11;
48893;PMS5003;34710;35.798;139.446;2022-08-19T14:21:36;11;10;
48893;PMS5003;34710;35.798;139.446;2022-08-19T14:24:05;12;12;
48893;PMS5003;34710;35.798;139.446;2022-08-19T14:26:35;14;13;
48893;PMS5003;34710;35.798;139.446;2022-08-19T14:29:05;12;9;
48893;PMS5003;34710;35.798;139.446;2022-08-19T14:31:34;11;11;
48893;PMS5003;34710;35.798;139.446;2022-08-19T14:34:04;12;10;
48893;PMS5003;34710;35.798;139.446;2022-08-19T14:36:33;14;12;
48893;PMS5003;34710;35.798;139.446;2022-08-19T14:39:02;12;10;
48893;PMS5003;34710;35.798;139.446;2022-08-19T14:41:32;13;10;
48893;PMS5003;34710;35.798;139.446;2022-08-19T14:44:03;13;10;
48893;PMS5003;34710;35.798;139.446;2022-08-19T14:46:32;14;10;
48893;PMS5003;34710;35.798;139.446;2022-08-19T14:49:02;20;11;
48893;PMS5003;34710;35.798;139.446;2022-08-19T14:51:31;11;9;
48893;PMS5003;34710;35.798;139.446;2022-08-19T14:54:01;13;12;
48893;PMS5003;34710;35.798;139.446;2022-08-19T14:56:30;9;9;
48893;PMS5003;34710;35.798;139.446;2022-08-19T14:58:59;14;10;
48893;PMS5003;34710;35.798;139.446;2022-08-19T15:01:29;11;11;
48893;PMS5003;34710;35.798;139.446;2022-08-19T15:03:58;13;10;
48893;PMS5003;34710;35.798;139.446;2022-08-19T15:06:28;11;11;
48893;PMS5003;34710;35.798;139.446;2022-08-19T15:08:57;10;10;
48893;PMS5003;34710;35.798;139.446;2022-08-19T15:11:27;11;9;
48893;PMS5003;34710;35.798;139.446;2022-08-19T15:13:56;13;11;
48893;PMS5003;34710;35.798;139.446;2022-08-19T15:16:27;12;12;
48893;PMS5003;34710;35.798;139.446;2022-08-19T15:18:57;12;11;
48893;PMS5003;34710;35.798;139.446;2022-08-19T15:21:27;14;10;
48893;PMS5003;34710;35.798;139.446;2022-08-19T15:23:58;13;11;
48893;PMS5003;34710;35.798;139.446;2022-08-19T15:26:28;13;12;
48893;PMS5003;34710;35.798;139.446;2022-08-19T15:28:57;12;11;
48893;PMS5003;34710;35.798;139.446;2022-08-19T15:31:28;16;12;
48893;PMS5003;34710;35.798;139.446;2022-08-19T15:33:57;10;9;
48893;PMS5003;34710;35.798;139.446;2022-08-19T15:36:27;15;13;
48893;PMS5003;34710;35.798;139.446;2022-08-19T15:38:56;14;12;
48893;PMS5003;34710;35.798;139.446;2022-08-19T15:41:27;16;11;
48893;PMS5003;34710;35.798;139.446;2022-08-19T15:43:57;14;13;
48893;PMS5003;34710;35.798;139.446;2022-08-19T15:46:29;11;10;
48893;PMS5003;34710;35.798;139.446;2022-08-19T15:48:59;13;11;
48893;PMS5003;34710;35.798;139.446;2022-08-19T15:51:30;9;9;
48893;PMS5003;34710;35.798;139.446;2022-08-19T15:54:01;12;9;
48893;PMS5003;34710;35.798;139.446;2022-08-19T15:56:32;14;12;
48893;PMS5003;34710;35.798;139.446;2022-08-19T15:59:01;10;10;
48893;PMS5003;34710;35.798;139.446;2022-08-19T16:01:30;12;11;
48893;PMS5003;34710;35.798;139.446;2022-08-19T16:04:00;11;11;
48893;PMS5003;34710;35.798;139.446;2022-08-19T16:06:30;11;11;
48893;PMS5003;34710;35.798;139.446;2022-08-19T16:09:00;16;13;
48893;PMS5003;34710;35.798;139.446;2022-08-19T16:11:30;14;12;
48893;PMS5003;34710;35.798;139.446;2022-08-19T16:14:01;12;11;
48893;PMS5003;34710;35.798;139.446;2022-08-19T16:16:32;15;11;
48893;PMS5003;34710;35.798;139.446;2022-08-19T16:19:03;15;12;
48893;PMS5003;34710;35.798;139.446;2022-08-19T16:21:35;20;9;
48893;PMS5003;34710;35.798;139.446;2022-08-19T16:24:06;11;10;